In Rescue
 
Open Full Screen Window  High Contrast Mode
Wind Gusting 00 knots
04
January 29, 2020 12:35 AM EST
Weather Information
Wind Direction
  070 °
Wind Speed
  04 kt (5 mph)
Wind Gust
  00 kt (0 mph)
Altimeter
30.10 in
Visibility
10 SM
Temperature
-01° C
30° F
Dewpoint
-04° C
25° F
Humidity
80%
Sky Condition
Overcast @ 2,800 ft
MVFR

METAR KTEW 290535Z AUTO 07004KT 10SM OVC028 M01/M04 A3010 RMK AO2 T10141038

FAA Disclaimer: The data displayed is for advisory purposes only and is not to be used for flight planning or operations.